Time;durP1;ratioP1;P1;durP2;ratioP2;P2;SDS_P1;SDS_P2;PMS_P1;PMS_P2;Temp;Humidity;BMP_temperature;BMP_pressure;BME280_temperature;BME280_humidity;BME280_pressure;Samples;Min_cycle;Max_cycle;Signal;HPM_P1;HPM_P2
2023/12/11 00:00:22;;;;;;;22.20;7.72;;;;;;;;;;10285345;28;20080;-73
2023/12/11 00:05:18;;;;;;;16.27;7.05;;;;;;;;;;10303329;28;20041;-73
2023/12/11 00:10:14;;;;;;;16.70;6.85;;;;;;;;;;10302907;28;20040;-73
2023/12/11 00:15:12;;;;;;;12.80;6.70;;;;;;;;;;10286995;28;20080;-73
2023/12/11 00:20:09;;;;;;;12.10;6.50;;;;;;;;;;10298790;28;20083;-73
2023/12/11 00:25:05;;;;;;;12.15;5.80;;;;;;;;;;10292502;28;20045;-73
2023/12/11 00:30:02;;;;;;;11.23;5.85;;;;;;;;;;10301606;28;20045;-73
2023/12/11 00:34:59;;;;;;;13.20;5.82;;;;;;;;;;10291131;28;20056;-73
2023/12/11 00:39:55;;;;;;;13.15;5.70;;;;;;;;;;10306564;28;20044;-73
2023/12/11 00:44:52;;;;;;;10.00;5.10;;;;;;;;;;10305759;28;20566;-73
2023/12/11 00:49:48;;;;;;;11.45;4.90;;;;;;;;;;10313978;28;20520;-73
2023/12/11 00:54:45;;;;;;;9.68;5.50;;;;;;;;;;10314478;28;20045;-73
2023/12/11 00:59:41;;;;;;;6.78;5.35;;;;;;;;;;10307668;28;20072;-73
2023/12/11 01:04:38;;;;;;;7.47;5.50;;;;;;;;;;10310013;28;20051;-73
2023/12/11 01:09:34;;;;;;;8.88;5.80;;;;;;;;;;10293284;28;20060;-73
2023/12/11 01:14:30;;;;;;;8.88;5.25;;;;;;;;;;10304189;28;20057;-73
2023/12/11 01:19:27;;;;;;;10.15;5.65;;;;;;;;;;10288583;28;20044;-73
2023/12/11 01:24:24;;;;;;;10.75;5.82;;;;;;;;;;10299891;28;20110;-73
2023/12/11 01:29:20;;;;;;;10.52;5.28;;;;;;;;;;10298417;28;20462;-73
2023/12/11 01:34:16;;;;;;;9.95;5.32;;;;;;;;;;10286805;28;20098;-73
2023/12/11 01:39:13;;;;;;;9.27;5.43;;;;;;;;;;10294843;28;20084;-73
2023/12/11 01:44:10;;;;;;;8.27;5.60;;;;;;;;;;10285027;28;20136;-73
2023/12/11 01:49:06;;;;;;;11.45;5.97;;;;;;;;;;10294475;28;20514;-73
2023/12/11 01:54:03;;;;;;;7.63;5.72;;;;;;;;;;10301856;28;20049;-73
2023/12/11 01:58:59;;;;;;;11.50;6.55;;;;;;;;;;10302964;28;20056;-73
2023/12/11 02:03:56;;;;;;;9.13;6.13;;;;;;;;;;10295722;28;20056;-73
2023/12/11 02:08:52;;;;;;;10.15;6.05;;;;;;;;;;10300314;28;20404;-73
2023/12/11 02:13:49;;;;;;;10.95;6.55;;;;;;;;;;10307497;28;20049;-73
2023/12/11 02:18:45;;;;;;;10.77;6.18;;;;;;;;;;10292542;28;20044;-73
2023/12/11 02:23:55;;;;;;;10.93;6.53;;;;;;;;;;10307283;28;20668;-73
2023/12/11 02:28:52;;;;;;;12.77;7.78;;;;;;;;;;10299939;28;20048;-73
2023/12/11 02:33:48;;;;;;;10.43;7.40;;;;;;;;;;10306777;28;20049;-73
2023/12/11 02:38:45;;;;;;;12.88;8.07;;;;;;;;;;10300349;28;20412;-73
2023/12/11 02:43:41;;;;;;;16.27;8.73;;;;;;;;;;10299306;28;20052;-73
2023/12/11 02:48:37;;;;;;;12.82;8.60;;;;;;;;;;10298151;28;20068;-73
2023/12/11 02:53:34;;;;;;;14.10;9.32;;;;;;;;;;10308786;28;20052;-73
2023/12/11 02:58:30;;;;;;;13.82;8.88;;;;;;;;;;10311039;28;20048;-73
2023/12/11 03:03:27;;;;;;;14.93;7.60;;;;;;;;;;10305387;28;20044;-73
2023/12/11 03:08:23;;;;;;;16.58;8.52;;;;;;;;;;10299423;28;20048;-74
2023/12/11 03:13:19;;;;;;;13.50;8.43;;;;;;;;;;10292169;28;20048;-73
2023/12/11 03:18:16;;;;;;;13.27;7.97;;;;;;;;;;10304322;28;20048;-73
2023/12/11 03:23:12;;;;;;;16.83;8.95;;;;;;;;;;10313145;28;20528;-73
2023/12/11 03:28:08;;;;;;;16.45;8.43;;;;;;;;;;10314409;28;20044;-73
2023/12/11 03:33:05;;;;;;;14.38;8.35;;;;;;;;;;10308359;28;20431;-73
2023/12/11 03:38:01;;;;;;;19.65;7.43;;;;;;;;;;10300202;28;20514;-73
2023/12/11 03:42:57;;;;;;;12.90;7.80;;;;;;;;;;10300505;28;20500;-73
2023/12/11 03:47:54;;;;;;;24.67;9.00;;;;;;;;;;10306486;28;20036;-73
2023/12/11 03:52:50;;;;;;;16.13;6.80;;;;;;;;;;10302044;28;20494;-73
2023/12/11 03:57:47;;;;;;;11.82;6.97;;;;;;;;;;10294292;28;20045;-73
2023/12/11 04:02:43;;;;;;;21.08;5.88;;;;;;;;;;10296901;28;20043;-73
2023/12/11 04:07:39;;;;;;;29.38;7.15;;;;;;;;;;10286763;28;20044;-73
2023/12/11 04:12:36;;;;;;;28.00;5.70;;;;;;;;;;10304779;28;20040;-73
2023/12/11 04:17:32;;;;;;;17.83;6.20;;;;;;;;;;10308892;28;20052;-74
2023/12/11 04:22:29;;;;;;;17.98;4.90;;;;;;;;;;10301205;28;20493;-73
2023/12/11 04:27:26;;;;;;;27.23;6.28;;;;;;;;;;10322096;28;20500;-73
2023/12/11 04:32:22;;;;;;;21.35;5.38;;;;;;;;;;10315045;28;20056;-73
2023/12/11 04:37:19;;;;;;;22.45;6.32;;;;;;;;;;10308762;28;20513;-73
2023/12/11 04:42:15;;;;;;;23.60;6.05;;;;;;;;;;10313707;28;20056;-73
2023/12/11 04:47:12;;;;;;;19.40;5.32;;;;;;;;;;10312117;28;20048;-73
2023/12/11 04:52:08;;;;;;;32.47;7.00;;;;;;;;;;10311833;28;20566;-73
2023/12/11 04:57:04;;;;;;;31.27;6.32;;;;;;;;;;10304812;28;20057;-73
2023/12/11 05:02:01;;;;;;;36.00;6.25;;;;;;;;;;10308633;28;20103;-73
2023/12/11 05:06:57;;;;;;;30.70;6.35;;;;;;;;;;10303411;28;20069;-73
2023/12/11 05:11:53;;;;;;;31.73;7.65;;;;;;;;;;10286170;28;20044;-73
2023/12/11 05:16:50;;;;;;;31.10;7.35;;;;;;;;;;10313206;28;20041;-73
2023/12/11 05:21:46;;;;;;;45.95;8.10;;;;;;;;;;10279393;28;20036;-73
2023/12/11 05:26:42;;;;;;;30.77;7.65;;;;;;;;;;10294780;28;20137;-73
2023/12/11 05:31:39;;;;;;;41.58;8.02;;;;;;;;;;10283869;28;20082;-73
2023/12/11 05:36:35;;;;;;;33.67;7.30;;;;;;;;;;10290692;28;20052;-73
2023/12/11 05:41:32;;;;;;;39.17;8.38;;;;;;;;;;10302230;28;20053;-73
2023/12/11 05:46:28;;;;;;;35.25;8.88;;;;;;;;;;10307022;28;20057;-73
2023/12/11 05:51:27;;;;;;;28.08;6.95;;;;;;;;;;10294369;28;20271;-73
2023/12/11 05:56:23;;;;;;;37.95;7.80;;;;;;;;;;10306536;28;20651;-73
2023/12/11 06:01:19;;;;;;;32.05;7.90;;;;;;;;;;10293091;28;20098;-73
2023/12/11 06:06:16;;;;;;;40.70;9.00;;;;;;;;;;10304626;28;20052;-73
2023/12/11 06:11:13;;;;;;;35.45;8.88;;;;;;;;;;10302163;28;20070;-73
2023/12/11 06:16:10;;;;;;;29.67;8.32;;;;;;;;;;10301686;28;20041;-73
2023/12/11 06:21:16;;;;;;;44.88;9.80;;;;;;;;;;10299489;28;20528;-73
2023/12/11 06:26:42;;;;;;;34.40;8.90;;;;;;;;;;10299073;28;20101;-73
2023/12/11 06:31:39;;;;;;;38.83;9.98;;;;;;;;;;10280533;28;20508;-73
2023/12/11 06:36:35;;;;;;;46.53;10.32;;;;;;;;;;10285541;28;20052;-74
2023/12/11 06:41:34;;;;;;;36.53;10.02;;;;;;;;;;10303601;28;20044;-73
2023/12/11 06:46:30;;;;;;;31.17;9.00;;;;;;;;;;10306037;28;20109;-73
2023/12/11 06:51:27;;;;;;;38.20;9.43;;;;;;;;;;10300432;28;20079;-73
2023/12/11 06:56:24;;;;;;;38.17;9.18;;;;;;;;;;10290505;28;20048;-73
2023/12/11 07:01:21;;;;;;;40.22;9.60;;;;;;;;;;10297890;28;20052;-73
2023/12/11 07:06:17;;;;;;;37.22;9.40;;;;;;;;;;10308422;28;20098;-73
2023/12/11 07:11:14;;;;;;;30.77;8.13;;;;;;;;;;10301476;28;20049;-73
2023/12/11 07:16:10;;;;;;;35.92;9.10;;;;;;;;;;10292402;28;20450;-73
2023/12/11 07:21:10;;;;;;;35.38;9.50;;;;;;;;;;10294346;28;20045;-73
2023/12/11 07:26:10;;;;;;;34.67;8.73;;;;;;;;;;10289065;28;20044;-73
2023/12/11 07:31:06;;;;;;;32.78;9.00;;;;;;;;;;10304496;28;20049;-73
2023/12/11 07:36:04;;;;;;;37.58;10.45;;;;;;;;;;10306800;28;20140;-73
2023/12/11 07:41:00;;;;;;;34.88;10.30;;;;;;;;;;10295968;28;20099;-73
2023/12/11 07:46:02;;;;;;;29.50;7.82;;;;;;;;;;10302409;28;20867;-73
2023/12/11 07:50:59;;;;;;;22.73;8.50;;;;;;;;;;10293009;28;20064;-73
2023/12/11 07:55:55;;;;;;;30.27;8.38;;;;;;;;;;10310006;28;20052;-73
2023/12/11 08:00:52;;;;;;;27.02;6.65;;;;;;;;;;10301270;28;20071;-73
2023/12/11 08:05:48;;;;;;;36.63;7.43;;;;;;;;;;10313661;28;20080;-73
2023/12/11 08:10:45;;;;;;;28.23;8.02;;;;;;;;;;10312940;28;20052;-73
2023/12/11 08:15:41;;;;;;;32.33;8.50;;;;;;;;;;10312531;28;20137;-73
2023/12/11 08:20:37;;;;;;;29.10;8.30;;;;;;;;;;10306615;28;20501;-73
2023/12/11 08:25:34;;;;;;;22.73;7.55;;;;;;;;;;10309117;28;20175;-73
2023/12/11 08:30:30;;;;;;;25.13;7.30;;;;;;;;;;10308937;28;20044;-73
2023/12/11 08:35:26;;;;;;;24.25;8.82;;;;;;;;;;10308782;28;20045;-73
2023/12/11 08:40:23;;;;;;;25.05;8.20;;;;;;;;;;10296876;28;20688;-73
2023/12/11 08:45:20;;;;;;;28.83;8.75;;;;;;;;;;10306950;28;20475;-73
2023/12/11 08:50:19;;;;;;;24.98;8.60;;;;;;;;;;10311850;28;20110;-72
2023/12/11 08:55:16;;;;;;;32.10;9.10;;;;;;;;;;10318177;28;20409;-73
2023/12/11 09:00:14;;;;;;;38.10;9.65;;;;;;;;;;10325324;28;20052;-73
2023/12/11 09:05:11;;;;;;;27.25;8.85;;;;;;;;;;10336462;28;20123;-72
2023/12/11 09:10:08;;;;;;;27.15;9.23;;;;;;;;;;10337265;28;20044;-72
2023/12/11 09:15:05;;;;;;;28.75;9.85;;;;;;;;;;10336454;28;20074;-73
2023/12/11 09:20:05;;;;;;;26.85;8.70;;;;;;;;;;10331206;28;20049;-72
2023/12/11 09:25:02;;;;;;;31.75;9.95;;;;;;;;;;10331021;28;20071;-72
2023/12/11 09:29:58;;;;;;;20.90;6.80;;;;;;;;;;10336297;28;20052;-73
2023/12/11 09:34:55;;;;;;;22.15;7.30;;;;;;;;;;10305586;28;20056;-74
2023/12/11 09:39:52;;;;;;;12.32;5.75;;;;;;;;;;10324291;28;20059;-74
2023/12/11 09:44:50;;;;;;;16.05;6.63;;;;;;;;;;10306389;28;20128;-74
2023/12/11 09:49:46;;;;;;;18.88;6.95;;;;;;;;;;10325149;28;20736;-74
2023/12/11 09:54:43;;;;;;;18.38;8.95;;;;;;;;;;10309389;28;20055;-74
2023/12/11 09:59:40;;;;;;;25.48;9.52;;;;;;;;;;10315682;28;20059;-74
2023/12/11 10:04:36;;;;;;;27.88;9.38;;;;;;;;;;10320429;28;20060;-75
2023/12/11 10:09:35;;;;;;;32.25;8.77;;;;;;;;;;10317077;28;20795;-74
2023/12/11 10:14:32;;;;;;;34.20;8.65;;;;;;;;;;10312188;28;20071;-74
2023/12/11 10:19:32;;;;;;;35.03;9.18;;;;;;;;;;10310395;28;20393;-73
2023/12/11 10:24:29;;;;;;;30.27;9.13;;;;;;;;;;10293799;28;20045;-73
2023/12/11 10:29:30;;;;;;;29.10;8.43;;;;;;;;;;10314454;28;20059;-73
2023/12/11 10:34:41;;;;;;;28.02;8.25;;;;;;;;;;10300186;28;20103;-73
2023/12/11 10:39:38;;;;;;;28.25;8.07;;;;;;;;;;10300680;28;20155;-73
2023/12/11 10:44:35;;;;;;;26.98;7.70;;;;;;;;;;10294382;28;20522;-73
2023/12/11 10:49:45;;;;;;;20.75;8.20;;;;;;;;;;10301314;28;20098;-72
2023/12/11 10:54:41;;;;;;;19.38;8.23;;;;;;;;;;10283368;28;20055;-72
2023/12/11 10:59:38;;;;;;;24.35;8.13;;;;;;;;;;10287865;28;20071;-72
2023/12/11 11:04:39;;;;;;;18.30;7.82;;;;;;;;;;10308368;28;20110;-72
2023/12/11 11:09:41;;;;;;;26.13;8.32;;;;;;;;;;10300963;28;20051;-72
2023/12/11 11:14:47;;;;;;;22.20;8.05;;;;;;;;;;10309167;28;20055;-72
2023/12/11 11:20:03;;;;;;;18.33;8.32;;;;;;;;;;10293633;28;20063;-73
2023/12/11 11:25:19;;;;;;;19.63;8.40;;;;;;;;;;10310476;28;20084;-72
2023/12/11 11:30:34;;;;;;;26.15;8.38;;;;;;;;;;10292197;28;20055;-73
2023/12/11 11:35:46;;;;;;;21.33;9.50;;;;;;;;;;10309289;28;20049;-72
2023/12/11 11:40:43;;;;;;;18.13;9.05;;;;;;;;;;10297194;28;20519;-72
2023/12/11 11:45:40;;;;;;;17.27;7.82;;;;;;;;;;10296650;28;20052;-72
2023/12/11 11:50:48;;;;;;;20.00;8.43;;;;;;;;;;10286293;28;20050;-72
2023/12/11 11:55:44;;;;;;;19.60;9.77;;;;;;;;;;10299559;28;20056;-72
2023/12/11 12:00:41;;;;;;;21.95;8.52;;;;;;;;;;10285308;28;20048;-72
2023/12/11 12:05:52;;;;;;;17.80;8.20;;;;;;;;;;10303022;28;20045;-72
2023/12/11 12:10:49;;;;;;;13.32;8.15;;;;;;;;;;10282181;28;20053;-72
2023/12/11 12:15:45;;;;;;;19.40;8.88;;;;;;;;;;10301937;28;20045;-72
2023/12/11 12:20:41;;;;;;;22.30;8.60;;;;;;;;;;10308484;28;20060;-72
2023/12/11 12:25:38;;;;;;;13.20;8.77;;;;;;;;;;10305433;28;20041;-72
2023/12/11 12:30:34;;;;;;;18.08;8.80;;;;;;;;;;10302016;28;20072;-72
2023/12/11 12:35:32;;;;;;;13.02;6.82;;;;;;;;;;10299605;28;20045;-72
2023/12/11 12:40:33;;;;;;;16.10;6.90;;;;;;;;;;10313863;28;20055;-72
2023/12/11 12:45:32;;;;;;;15.27;8.10;;;;;;;;;;10315795;28;20079;-72
2023/12/11 12:50:32;;;;;;;12.13;7.10;;;;;;;;;;10311453;28;20110;-71
2023/12/11 12:55:29;;;;;;;15.77;7.03;;;;;;;;;;10309459;28;20156;-72
2023/12/11 13:00:26;;;;;;;12.27;6.55;;;;;;;;;;10307709;28;20063;-72
2023/12/11 13:05:37;;;;;;;14.40;8.32;;;;;;;;;;10282755;28;20048;-72
2023/12/11 13:10:33;;;;;;;10.88;8.05;;;;;;;;;;10314519;28;20055;-72
2023/12/11 13:15:29;;;;;;;16.08;7.25;;;;;;;;;;10312308;28;20053;-72
2023/12/11 13:20:25;;;;;;;10.57;7.72;;;;;;;;;;10318117;28;20466;-72
2023/12/11 13:25:22;;;;;;;18.02;8.52;;;;;;;;;;10314179;28;20109;-71
2023/12/11 13:30:18;;;;;;;13.70;7.97;;;;;;;;;;10305040;28;20502;-71
2023/12/11 13:35:15;;;;;;;17.75;8.80;;;;;;;;;;10299183;28;20083;-71
2023/12/11 13:40:11;;;;;;;27.75;9.50;;;;;;;;;;10313869;28;20049;-71
2023/12/11 13:45:08;;;;;;;15.75;8.05;;;;;;;;;;10311836;28;20063;-72
2023/12/11 13:50:04;;;;;;;15.73;8.55;;;;;;;;;;10309670;28;20076;-72
2023/12/11 13:55:02;;;;;;;14.85;8.52;;;;;;;;;;10300950;28;20519;-71
2023/12/11 13:59:58;;;;;;;17.27;8.30;;;;;;;;;;10300102;28;20178;-72
2023/12/11 14:04:55;;;;;;;13.10;8.50;;;;;;;;;;10290419;28;20045;-71
2023/12/11 14:09:52;;;;;;;12.65;7.43;;;;;;;;;;10289283;28;20156;-71
2023/12/11 14:14:48;;;;;;;16.42;8.00;;;;;;;;;;10304762;28;20052;-71
2023/12/11 14:19:45;;;;;;;8.65;7.00;;;;;;;;;;10306921;28;20045;-71
2023/12/11 14:24:42;;;;;;;9.38;6.13;;;;;;;;;;10295329;28;20175;-71
2023/12/11 14:29:41;;;;;;;9.57;5.28;;;;;;;;;;10293290;28;20443;-72
2023/12/11 14:34:40;;;;;;;11.30;4.32;;;;;;;;;;10306826;28;20052;-72
2023/12/11 14:39:38;;;;;;;8.65;5.47;;;;;;;;;;10300108;28;20060;-72
2023/12/11 14:44:35;;;;;;;10.02;6.07;;;;;;;;;;10304138;28;20052;-72
2023/12/11 14:49:32;;;;;;;10.55;6.80;;;;;;;;;;10309087;28;20048;-72
2023/12/11 14:54:28;;;;;;;8.60;6.10;;;;;;;;;;10308178;28;20538;-72
2023/12/11 14:59:25;;;;;;;6.82;5.28;;;;;;;;;;10309927;28;20053;-72
2023/12/11 15:04:21;;;;;;;7.32;5.85;;;;;;;;;;10303605;28;20044;-72
2023/12/11 15:09:17;;;;;;;9.02;6.13;;;;;;;;;;10309928;28;20091;-72
2023/12/11 15:14:14;;;;;;;10.10;6.10;;;;;;;;;;10301230;28;20132;-72
2023/12/11 15:19:10;;;;;;;10.02;7.05;;;;;;;;;;10311215;28;20048;-72
2023/12/11 15:24:07;;;;;;;7.43;6.65;;;;;;;;;;10294766;28;20405;-72
2023/12/11 15:29:07;;;;;;;13.45;8.50;;;;;;;;;;10306753;28;20052;-72
2023/12/11 15:34:04;;;;;;;12.02;8.27;;;;;;;;;;10311900;28;20082;-72
2023/12/11 15:39:00;;;;;;;10.60;7.97;;;;;;;;;;10295324;28;20048;-72
2023/12/11 15:43:57;;;;;;;11.23;8.85;;;;;;;;;;10294946;28;21306;-72
2023/12/11 15:48:53;;;;;;;15.55;10.10;;;;;;;;;;10301753;28;20049;-72
2023/12/11 15:53:50;;;;;;;19.55;10.48;;;;;;;;;;10302637;28;20569;-72
2023/12/11 15:58:46;;;;;;;20.67;12.18;;;;;;;;;;10303808;28;20510;-72
2023/12/11 16:03:43;;;;;;;24.38;14.32;;;;;;;;;;10297779;28;20056;-72
2023/12/11 16:08:40;;;;;;;19.05;12.00;;;;;;;;;;10297716;28;20087;-71
2023/12/11 16:13:36;;;;;;;17.80;12.63;;;;;;;;;;10308110;28;20421;-72
2023/12/11 16:18:32;;;;;;;22.55;13.25;;;;;;;;;;10304562;28;20056;-72
2023/12/11 16:23:29;;;;;;;28.08;15.88;;;;;;;;;;10304626;28;20076;-71
2023/12/11 16:28:25;;;;;;;23.00;13.65;;;;;;;;;;10303571;28;20106;-72
2023/12/11 16:33:23;;;;;;;36.70;16.92;;;;;;;;;;10305385;28;20140;-72
2023/12/11 16:38:21;;;;;;;31.70;18.05;;;;;;;;;;10296467;28;20531;-72
2023/12/11 16:43:18;;;;;;;35.28;17.58;;;;;;;;;;10304756;28;20565;-72
2023/12/11 16:48:16;;;;;;;44.25;23.20;;;;;;;;;;10307581;28;20061;-72
2023/12/11 16:53:12;;;;;;;33.60;18.88;;;;;;;;;;10312841;28;20063;-72
2023/12/11 16:58:09;;;;;;;41.03;22.17;;;;;;;;;;10298192;28;20060;-72
2023/12/11 17:03:05;;;;;;;32.60;18.50;;;;;;;;;;10309332;28;20059;-72
2023/12/11 17:08:02;;;;;;;28.10;16.63;;;;;;;;;;10303755;28;20109;-72
2023/12/11 17:12:59;;;;;;;32.10;17.38;;;;;;;;;;10304188;28;20274;-72
2023/12/11 17:17:55;;;;;;;26.65;15.57;;;;;;;;;;10310774;28;20512;-72
2023/12/11 17:22:52;;;;;;;22.92;14.88;;;;;;;;;;10306955;28;20071;-72
2023/12/11 17:27:48;;;;;;;30.80;15.57;;;;;;;;;;10299517;28;20141;-72
2023/12/11 17:32:44;;;;;;;21.13;13.77;;;;;;;;;;10314991;28;20584;-72
2023/12/11 17:37:41;;;;;;;19.58;12.48;;;;;;;;;;10300787;28;20091;-72
2023/12/11 17:42:37;;;;;;;16.52;13.13;;;;;;;;;;10295934;28;20052;-72
2023/12/11 17:47:33;;;;;;;15.35;11.95;;;;;;;;;;10310945;28;20051;-71
2023/12/11 17:52:30;;;;;;;19.48;12.07;;;;;;;;;;10305024;28;20136;-71
2023/12/11 17:57:27;;;;;;;18.27;12.55;;;;;;;;;;10304826;28;20072;-72
2023/12/11 18:02:25;;;;;;;19.92;14.73;;;;;;;;;;10299179;28;20056;-72
2023/12/11 18:07:22;;;;;;;18.98;14.85;;;;;;;;;;10304970;28;20076;-72
2023/12/11 18:12:19;;;;;;;18.65;14.40;;;;;;;;;;10305678;28;20083;-72
2023/12/11 18:17:15;;;;;;;17.92;14.50;;;;;;;;;;10308176;28;20708;-72
2023/12/11 18:22:11;;;;;;;18.92;14.93;;;;;;;;;;10300343;28;20059;-72
2023/12/11 18:27:08;;;;;;;23.00;14.30;;;;;;;;;;10294766;28;20057;-72
2023/12/11 18:32:04;;;;;;;18.17;13.38;;;;;;;;;;10303021;28;20496;-72
2023/12/11 18:37:04;;;;;;;18.92;14.57;;;;;;;;;;10289612;28;20045;-72
2023/12/11 18:42:01;;;;;;;17.35;13.93;;;;;;;;;;10298378;28;20049;-72
2023/12/11 18:46:57;;;;;;;15.48;13.35;;;;;;;;;;10298951;28;20075;-72
2023/12/11 18:51:54;;;;;;;14.23;12.70;;;;;;;;;;10295456;28;20135;-72
2023/12/11 18:56:51;;;;;;;17.55;12.73;;;;;;;;;;10307559;28;20419;-71
2023/12/11 19:01:47;;;;;;;14.30;12.65;;;;;;;;;;10290905;28;20049;-72
2023/12/11 19:06:44;;;;;;;17.10;13.32;;;;;;;;;;10291761;28;20049;-71
2023/12/11 19:11:40;;;;;;;17.55;13.25;;;;;;;;;;10308238;28;20048;-71
2023/12/11 19:16:37;;;;;;;18.73;13.13;;;;;;;;;;10303021;28;20495;-71
2023/12/11 19:21:34;;;;;;;18.10;14.43;;;;;;;;;;10308661;28;20121;-71
2023/12/11 19:26:34;;;;;;;16.10;13.57;;;;;;;;;;10303129;28;20048;-71
2023/12/11 19:31:31;;;;;;;17.88;13.32;;;;;;;;;;10302912;28;20041;-72
2023/12/11 19:36:27;;;;;;;18.48;13.05;;;;;;;;;;10305461;28;20500;-72
2023/12/11 19:41:23;;;;;;;16.35;12.40;;;;;;;;;;10301530;28;20107;-71
2023/12/11 19:46:20;;;;;;;16.48;13.63;;;;;;;;;;10292437;28;20515;-72
2023/12/11 19:51:16;;;;;;;18.05;12.93;;;;;;;;;;10306197;28;20123;-71
2023/12/11 19:56:20;;;;;;;18.38;12.82;;;;;;;;;;10305410;28;20053;-71
2023/12/11 20:01:29;;;;;;;18.42;12.50;;;;;;;;;;10300020;28;20056;-71
2023/12/11 20:06:26;;;;;;;18.48;14.23;;;;;;;;;;10297405;28;20152;-72
2023/12/11 20:11:25;;;;;;;19.60;13.63;;;;;;;;;;10294602;28;20052;-71
2023/12/11 20:16:22;;;;;;;18.60;13.88;;;;;;;;;;10293936;28;20151;-71
2023/12/11 20:21:19;;;;;;;16.02;13.82;;;;;;;;;;10293665;28;20409;-71
2023/12/11 20:26:20;;;;;;;15.18;12.10;;;;;;;;;;10279671;28;20335;-71
2023/12/11 20:31:19;;;;;;;15.75;12.50;;;;;;;;;;10292038;28;20048;-71
2023/12/11 20:36:20;;;;;;;15.77;11.70;;;;;;;;;;10292260;28;20127;-71
2023/12/11 20:41:20;;;;;;;18.10;14.52;;;;;;;;;;10290003;28;20099;-71
2023/12/11 20:46:21;;;;;;;16.88;12.73;;;;;;;;;;10305071;28;20067;-72
2023/12/11 20:51:21;;;;;;;13.75;12.30;;;;;;;;;;10307179;28;20045;-72
2023/12/11 20:56:19;;;;;;;16.75;13.70;;;;;;;;;;10304006;28;20132;-72
2023/12/11 21:01:28;;;;;;;17.38;13.68;;;;;;;;;;10302712;28;20052;-72
2023/12/11 21:06:26;;;;;;;19.35;15.35;;;;;;;;;;10300656;28;20057;-71
2023/12/11 21:11:23;;;;;;;19.85;13.35;;;;;;;;;;10306681;28;20064;-71
2023/12/11 21:16:19;;;;;;;20.05;14.75;;;;;;;;;;10312329;28;20041;-71
2023/12/11 21:21:16;;;;;;;24.30;16.75;;;;;;;;;;10292938;28;20064;-71
2023/12/11 21:26:13;;;;;;;21.33;14.05;;;;;;;;;;10301719;28;20052;-71
2023/12/11 21:31:24;;;;;;;28.00;17.13;;;;;;;;;;10297030;28;20049;-71
2023/12/11 21:36:21;;;;;;;25.17;15.70;;;;;;;;;;10300143;28;20070;-71
2023/12/11 21:41:18;;;;;;;25.20;16.80;;;;;;;;;;10298733;28;20084;-71
2023/12/11 21:46:15;;;;;;;29.85;16.88;;;;;;;;;;10298808;28;20048;-71
2023/12/11 21:51:15;;;;;;;25.52;15.13;;;;;;;;;;10294786;28;20044;-71
2023/12/11 21:56:11;;;;;;;25.27;15.25;;;;;;;;;;10299037;28;20477;-71
2023/12/11 22:01:08;;;;;;;26.27;16.52;;;;;;;;;;10303430;28;20052;-71
2023/12/11 22:06:04;;;;;;;24.35;14.57;;;;;;;;;;10297389;28;20044;-71
2023/12/11 22:11:01;;;;;;;30.10;14.63;;;;;;;;;;10299078;28;20052;-71
2023/12/11 22:15:57;;;;;;;21.08;13.70;;;;;;;;;;10303348;28;20531;-71
2023/12/11 22:20:53;;;;;;;22.10;12.55;;;;;;;;;;10303987;28;20143;-71
2023/12/11 22:25:50;;;;;;;17.77;12.82;;;;;;;;;;10284710;28;20049;-71
2023/12/11 22:30:46;;;;;;;14.80;10.75;;;;;;;;;;10302827;28;20574;-72
2023/12/11 22:35:42;;;;;;;23.30;11.55;;;;;;;;;;10297934;28;20176;-71
2023/12/11 22:40:40;;;;;;;14.98;10.82;;;;;;;;;;10287489;28;20052;-71
2023/12/11 22:45:36;;;;;;;16.42;10.52;;;;;;;;;;10304363;28;20408;-71
2023/12/11 22:50:33;;;;;;;16.83;10.85;;;;;;;;;;10295697;28;20063;-71
2023/12/11 22:55:29;;;;;;;18.02;10.75;;;;;;;;;;10310633;28;20045;-71
2023/12/11 23:00:26;;;;;;;16.63;9.50;;;;;;;;;;10296583;28;20048;-71
2023/12/11 23:05:23;;;;;;;13.23;8.95;;;;;;;;;;10292542;28;20098;-71
2023/12/11 23:10:24;;;;;;;17.13;10.40;;;;;;;;;;10294710;28;20500;-72
2023/12/11 23:15:21;;;;;;;17.25;10.40;;;;;;;;;;10306698;28;21687;-72
2023/12/11 23:20:18;;;;;;;14.98;9.70;;;;;;;;;;10296782;28;20048;-72
2023/12/11 23:25:15;;;;;;;15.32;9.60;;;;;;;;;;10297622;28;20060;-72
2023/12/11 23:30:14;;;;;;;13.38;10.23;;;;;;;;;;10288969;28;20232;-72
2023/12/11 23:35:10;;;;;;;17.63;11.60;;;;;;;;;;10278174;28;20068;-72
2023/12/11 23:40:06;;;;;;;16.63;11.23;;;;;;;;;;10299909;28;20053;-72
2023/12/11 23:45:03;;;;;;;18.88;12.27;;;;;;;;;;10300738;28;20061;-72
2023/12/11 23:49:59;;;;;;;18.58;11.43;;;;;;;;;;10303855;28;20049;-71
2023/12/11 23:54:56;;;;;;;18.70;12.57;;;;;;;;;;10307703;28;20076;-71
2023/12/11 23:59:53;;;;;;;19.58;12.82;;;;;;;;;;10295720;28;20041;-71
